Time;durP1;ratioP1;P1;durP2;ratioP2;P2;SDS_P1;SDS_P2;PMS_P1;PMS_P2;Temp;Humidity;BMP_temperature;BMP_pressure;BME280_temperature;BME280_humidity;BME280_pressure;Samples;Min_cycle;Max_cycle;Signal;HPM_P1;HPM_P2
2021/06/11 00:02:41;;;;;;;3.27;3.07;;;19.10;98.90;;;;;;6275022;28;20474;-63
2021/06/11 00:05:44;;;;;;;3.63;3.33;;;19.10;98.70;;;;;;6274179;28;20250;-63
2021/06/11 00:08:48;;;;;;;3.83;3.20;;;19.10;98.90;;;;;;6274845;28;20235;-63
2021/06/11 00:11:51;;;;;;;3.23;3.03;;;19.10;98.90;;;;;;6274899;28;20547;-63
2021/06/11 00:14:54;;;;;;;4.33;3.53;;;19.10;99.10;;;;;;6274558;28;20235;-63
2021/06/11 00:17:56;;;;;;;3.50;3.23;;;19.10;99.40;;;;;;6274932;28;20231;-63
2021/06/11 00:21:00;;;;;;;3.83;3.53;;;19.10;99.70;;;;;;6274588;28;20242;-63
2021/06/11 00:24:05;;;;;;;4.87;4.03;;;19.10;99.90;;;;;;6275012;28;20493;-65
2021/06/11 00:27:08;;;;;;;3.73;3.40;;;19.10;99.70;;;;;;6274358;28;20243;-63
2021/06/11 00:30:12;;;;;;;4.03;3.73;;;19.10;99.60;;;;;;6274501;28;20227;-63
2021/06/11 00:33:15;;;;;;;3.00;2.80;;;19.10;99.50;;;;;;6274935;28;20230;-63
2021/06/11 00:36:17;;;;;;;3.50;3.30;;;19.20;99.20;;;;;;6269724;28;20469;-62
2021/06/11 00:39:22;;;;;;;3.60;3.30;;;19.20;99.30;;;;;;6274248;28;20716;-62
2021/06/11 00:42:24;;;;;;;3.70;3.20;;;19.10;99.20;;;;;;6274396;28;20568;-63
2021/06/11 00:45:27;;;;;;;3.70;3.40;;;19.10;99.40;;;;;;6274576;28;20237;-59
2021/06/11 00:48:30;;;;;;;3.17;2.87;;;19.20;99.40;;;;;;6273964;28;20681;-60
2021/06/11 00:51:32;;;;;;;5.40;2.87;;;19.20;99.20;;;;;;6274101;28;20250;-60
2021/06/11 00:54:37;;;;;;;4.10;3.80;;;19.20;98.90;;;;;;6273849;28;20689;-61
2021/06/11 00:57:39;;;;;;;3.80;2.80;;;19.30;99.00;;;;;;6273971;28;20242;-62
2021/06/11 01:00:43;;;;;;;2.80;2.57;;;19.30;98.90;;;;;;6298505;28;20219;-62
2021/06/11 01:03:46;;;;;;;3.57;3.17;;;19.40;98.70;;;;;;6298169;28;20453;-62
2021/06/11 01:06:50;;;;;;;3.40;3.10;;;19.40;98.60;;;;;;6273671;28;20234;-62
2021/06/11 01:09:56;;;;;;;3.53;3.13;;;19.40;98.60;;;;;;6273601;28;20657;-62
2021/06/11 01:12:59;;;;;;;3.10;2.90;;;19.40;98.40;;;;;;6274129;28;20211;-60
2021/06/11 01:16:01;;;;;;;2.83;2.63;;;19.40;98.30;;;;;;6275809;28;20231;-61
2021/06/11 01:19:06;;;;;;;2.90;2.70;;;19.30;98.40;;;;;;6279936;28;20227;-63
2021/06/11 01:22:13;;;;;;;3.27;2.93;;;19.30;98.20;;;;;;6278595;28;20234;-59
2021/06/11 01:25:19;;;;;;;2.90;2.70;;;19.40;98.30;;;;;;6278975;28;20701;-60
2021/06/11 01:28:26;;;;;;;3.50;3.20;;;19.40;98.40;;;;;;6277943;28;20239;-59
2021/06/11 01:31:30;;;;;;;4.33;2.70;;;19.40;98.70;;;;;;6278949;28;20238;-63
2021/06/11 01:34:37;;;;;;;4.23;3.43;;;19.30;98.90;;;;;;6278057;28;20979;-63
2021/06/11 01:37:41;;;;;;;3.50;3.00;;;19.20;99.10;;;;;;6271264;28;20235;-62
2021/06/11 01:40:45;;;;;;;4.23;3.00;;;19.20;99.10;;;;;;6281940;28;20242;-62
2021/06/11 01:43:53;;;;;;;3.37;3.03;;;19.20;99.20;;;;;;6278911;28;20228;-59
2021/06/11 01:46:57;;;;;;;3.30;2.90;;;19.20;99.20;;;;;;6278103;28;20235;-60
2021/06/11 01:50:01;;;;;;;3.70;3.40;;;19.20;99.40;;;;;;6278135;28;20470;-62
2021/06/11 01:53:06;;;;;;;3.50;3.20;;;19.20;99.40;;;;;;6278343;28;20955;-59
2021/06/11 01:56:12;;;;;;;3.00;2.80;;;19.20;99.50;;;;;;6278137;28;20250;-58
2021/06/11 01:59:17;;;;;;;4.57;4.20;;;19.20;99.70;;;;;;6277887;28;20243;-58
2021/06/11 02:02:20;;;;;;;3.70;3.40;;;19.20;99.70;;;;;;6278035;28;20227;-62
2021/06/11 02:05:23;;;;;;;4.57;4.17;;;19.20;99.60;;;;;;6277787;28;20482;-59
2021/06/11 02:08:26;;;;;;;3.70;3.40;;;19.20;99.90;;;;;;6277530;28;20982;-60
2021/06/11 02:11:29;;;;;;;4.63;4.07;;;19.20;99.70;;;;;;6259900;28;20575;-62
2021/06/11 02:14:35;;;;;;;4.17;3.50;;;19.20;99.50;;;;;;6277665;28;20538;-63
2021/06/11 02:17:41;;;;;;;4.17;3.60;;;19.20;99.40;;;;;;6277693;28;20513;-59
2021/06/11 02:20:43;;;;;;;4.07;3.70;;;19.20;99.50;;;;;;6276826;28;20254;-59
2021/06/11 02:23:46;;;;;;;3.50;3.20;;;19.10;99.40;;;;;;6277501;28;20707;-62
2021/06/11 02:26:50;;;;;;;5.10;3.20;;;19.10;98.90;;;;;;6276171;28;20223;-60
2021/06/11 02:29:56;;;;;;;3.93;3.10;;;19.00;98.40;;;;;;6277207;28;20258;-60
2021/06/11 02:32:59;;;;;;;3.20;3.00;;;19.00;98.40;;;;;;6276982;28;20235;-62
2021/06/11 02:36:01;;;;;;;3.10;2.90;;;19.00;98.60;;;;;;6277243;28;20223;-62
2021/06/11 02:39:04;;;;;;;3.00;2.80;;;19.00;98.70;;;;;;6276803;28;20232;-63
2021/06/11 02:42:09;;;;;;;3.37;3.07;;;19.00;98.80;;;;;;6272482;28;20232;-60
2021/06/11 02:45:26;;;;;;;3.80;3.33;;;19.10;98.90;;;;;;6276695;28;20235;-62
2021/06/11 02:48:33;;;;;;;5.20;4.00;;;19.10;98.90;;;;;;6276712;28;20477;-62
2021/06/11 02:51:39;;;;;;;3.40;3.10;;;19.00;99.00;;;;;;6276471;28;20238;-58
2021/06/11 02:54:44;;;;;;;3.60;3.30;;;19.00;99.10;;;;;;6276577;28;20790;-62
2021/06/11 02:57:50;;;;;;;3.50;3.17;;;19.00;99.10;;;;;;6276505;28;20451;-59
2021/06/11 03:00:55;;;;;;;3.43;3.13;;;19.10;99.10;;;;;;6276869;28;20434;-58
2021/06/11 03:04:00;;;;;;;3.40;3.20;;;19.10;99.30;;;;;;6276302;28;20442;-59
2021/06/11 03:07:05;;;;;;;5.77;3.03;;;19.10;99.30;;;;;;6276518;28;20228;-61
2021/06/11 03:10:10;;;;;;;3.53;3.23;;;19.10;99.30;;;;;;6276252;28;20569;-62
2021/06/11 03:13:14;;;;;;;4.60;3.37;;;19.10;99.30;;;;;;6276319;28;20238;-62
2021/06/11 03:16:18;;;;;;;4.10;3.60;;;19.10;99.10;;;;;;6276086;28;20474;-62
2021/06/11 03:19:22;;;;;;;3.70;3.40;;;19.00;99.10;;;;;;6275971;28;20303;-62
2021/06/11 03:22:29;;;;;;;3.90;3.60;;;19.00;99.10;;;;;;6276298;28;20466;-61
2021/06/11 03:25:36;;;;;;;4.03;3.73;;;19.00;99.40;;;;;;6275847;28;20234;-59
2021/06/11 03:28:45;;;;;;;4.20;3.80;;;19.00;99.30;;;;;;6275711;28;20251;-63
2021/06/11 03:31:53;;;;;;;3.67;3.37;;;19.10;99.20;;;;;;6275621;28;20231;-63
2021/06/11 03:35:02;;;;;;;3.80;3.50;;;19.00;99.20;;;;;;6275941;28;20231;-61
2021/06/11 03:38:09;;;;;;;5.00;3.73;;;19.00;99.20;;;;;;6275371;28;20246;-63
2021/06/11 03:41:13;;;;;;;4.00;3.70;;;18.90;99.20;;;;;;6274958;28;20807;-63
2021/06/11 03:44:18;;;;;;;3.60;3.30;;;18.90;99.20;;;;;;6275074;28;20243;-62
2021/06/11 03:47:24;;;;;;;4.00;3.70;;;18.90;99.40;;;;;;6265717;28;20243;-63
2021/06/11 03:50:28;;;;;;;3.83;3.53;;;18.90;99.40;;;;;;6275268;28;20244;-61
2021/06/11 03:53:31;;;;;;;3.67;3.37;;;19.00;99.40;;;;;;6275882;28;20246;-61
2021/06/11 03:56:37;;;;;;;3.90;3.60;;;19.10;99.50;;;;;;6274770;28;20227;-61
2021/06/11 03:59:40;;;;;;;6.07;3.73;;;19.10;99.40;;;;;;6275023;28;20380;-63
2021/06/11 04:02:46;;;;;;;4.13;3.73;;;19.10;99.30;;;;;;6274849;28;20228;-62
2021/06/11 04:05:52;;;;;;;3.47;3.27;;;19.10;99.30;;;;;;6274963;28;20252;-62
2021/06/11 04:09:01;;;;;;;4.03;3.60;;;19.20;99.50;;;;;;6274622;28;20243;-62
2021/06/11 04:12:08;;;;;;;4.20;3.90;;;19.20;99.50;;;;;;6274911;28;20234;-61
2021/06/11 04:15:12;;;;;;;7.00;4.50;;;19.30;99.70;;;;;;6274666;28;20274;-61
2021/06/11 04:18:22;;;;;;;3.97;3.60;;;19.30;99.50;;;;;;6274783;28;20235;-62
2021/06/11 04:21:26;;;;;;;3.90;3.60;;;19.40;99.50;;;;;;6274553;28;20243;-64
2021/06/11 04:24:31;;;;;;;3.30;3.10;;;19.40;99.40;;;;;;6274871;28;20470;-63
2021/06/11 04:27:37;;;;;;;3.67;3.37;;;19.50;99.50;;;;;;6274246;28;20684;-63
2021/06/11 04:30:39;;;;;;;3.97;3.30;;;19.50;99.30;;;;;;6274630;28;20243;-63
2021/06/11 04:33:44;;;;;;;4.03;3.60;;;19.60;99.20;;;;;;6274640;28;20225;-60
2021/06/11 04:36:48;;;;;;;3.70;3.50;;;19.60;99.10;;;;;;6274124;28;20684;-58
2021/06/11 04:39:50;;;;;;;3.80;3.50;;;19.70;99.20;;;;;;6274729;28;20203;-60
2021/06/11 04:42:54;;;;;;;3.40;3.10;;;19.70;98.90;;;;;;6274794;28;20207;-63
2021/06/11 04:45:57;;;;;;;3.07;2.87;;;19.70;98.30;;;;;;6275984;28;20238;-63
2021/06/11 04:49:01;;;;;;;3.50;3.30;;;19.80;98.40;;;;;;6265335;28;20681;-60
2021/06/11 04:52:05;;;;;;;4.17;3.83;;;20.00;98.10;;;;;;6274413;28;20227;-60
2021/06/11 04:55:09;;;;;;;3.40;3.10;;;20.20;97.90;;;;;;6273880;28;21144;-60
2021/06/11 04:58:17;;;;;;;3.10;2.90;;;20.40;97.60;;;;;;6274062;28;20250;-63
2021/06/11 05:01:20;;;;;;;4.43;3.90;;;20.50;96.80;;;;;;6274013;28;20239;-62
2021/06/11 05:04:24;;;;;;;3.63;3.33;;;20.60;96.40;;;;;;6274079;28;20255;-62
2021/06/11 05:07:30;;;;;;;6.57;3.60;;;20.60;96.20;;;;;;6273860;28;20236;-59
2021/06/11 05:10:32;;;;;;;3.33;3.10;;;20.80;96.10;;;;;;6274301;28;20231;-62
2021/06/11 05:13:35;;;;;;;3.60;3.30;;;21.00;95.80;;;;;;6273867;28;20308;-61
2021/06/11 05:16:38;;;;;;;4.10;3.70;;;21.40;95.50;;;;;;6274148;28;20238;-61
2021/06/11 05:19:42;;;;;;;5.70;3.30;;;21.60;94.90;;;;;;6273673;28;20700;-61
2021/06/11 05:22:45;;;;;;;5.13;3.93;;;21.60;94.40;;;;;;6273812;28;20228;-62
2021/06/11 05:25:48;;;;;;;3.47;3.17;;;21.60;94.00;;;;;;6273704;28;20246;-61
2021/06/11 05:28:51;;;;;;;5.63;3.60;;;21.50;93.90;;;;;;6273169;28;20232;-61
2021/06/11 05:31:54;;;;;;;4.93;4.17;;;21.50;94.00;;;;;;6274042;28;20223;-61
2021/06/11 05:34:58;;;;;;;3.37;3.13;;;21.40;93.60;;;;;;6273332;28;20238;-61
2021/06/11 05:38:04;;;;;;;5.13;3.60;;;21.50;93.70;;;;;;6273599;28;20238;-61
2021/06/11 05:41:07;;;;;;;4.30;3.40;;;21.60;93.80;;;;;;6273350;28;20254;-61
2021/06/11 05:44:10;;;;;;;6.70;3.57;;;21.70;93.70;;;;;;6273713;28;20230;-61
2021/06/11 05:47:13;;;;;;;3.77;3.47;;;21.80;93.70;;;;;;6273045;28;20247;-61
2021/06/11 05:50:17;;;;;;;3.97;3.57;;;21.80;93.50;;;;;;6273377;28;20242;-61
2021/06/11 05:53:22;;;;;;;4.47;3.90;;;21.90;93.40;;;;;;6273386;28;20232;-62
2021/06/11 05:56:25;;;;;;;3.80;3.50;;;22.00;93.00;;;;;;6273583;28;20224;-62
2021/06/11 05:59:27;;;;;;;3.73;3.33;;;22.10;92.70;;;;;;6273831;28;20258;-62
2021/06/11 06:02:30;;;;;;;4.37;3.97;;;22.00;92.50;;;;;;6274461;28;20231;-62
2021/06/11 06:05:34;;;;;;;5.00;4.10;;;22.00;92.10;;;;;;6277923;28;20232;-62
2021/06/11 06:08:37;;;;;;;3.60;3.40;;;22.00;92.30;;;;;;6277517;28;20235;-62
2021/06/11 06:11:40;;;;;;;3.73;3.43;;;22.00;92.20;;;;;;6277421;28;20238;-62
2021/06/11 06:14:43;;;;;;;5.27;3.90;;;21.90;92.20;;;;;;6277505;28;20235;-61
2021/06/11 06:17:45;;;;;;;4.13;3.50;;;22.10;92.70;;;;;;6277434;28;20243;-61
2021/06/11 06:20:49;;;;;;;3.53;3.13;;;22.90;91.60;;;;;;6277248;28;20548;-61
2021/06/11 06:23:52;;;;;;;3.80;3.50;;;23.60;89.80;;;;;;6277604;28;20234;-61
2021/06/11 06:26:55;;;;;;;3.23;3.03;;;24.10;88.00;;;;;;6277057;28;20235;-61
2021/06/11 06:29:58;;;;;;;3.40;3.20;;;24.10;86.40;;;;;;6277315;28;20238;-63
2021/06/11 06:33:00;;;;;;;4.00;3.43;;;24.20;85.90;;;;;;6277054;28;20236;-63
2021/06/11 06:36:06;;;;;;;4.40;3.60;;;24.20;86.50;;;;;;6276964;28;20227;-59
2021/06/11 06:39:09;;;;;;;4.63;3.00;;;24.40;86.10;;;;;;6277099;28;20688;-59
2021/06/11 06:42:12;;;;;;;3.10;2.90;;;24.50;84.00;;;;;;6276558;28;20712;-62
2021/06/11 06:45:19;;;;;;;3.20;2.90;;;24.40;84.10;;;;;;6277030;28;20231;-61
2021/06/11 06:48:21;;;;;;;3.30;3.10;;;24.70;82.90;;;;;;6276648;28;20227;-61
2021/06/11 06:51:26;;;;;;;4.30;3.10;;;25.00;81.60;;;;;;6276605;28;20696;-61
2021/06/11 06:54:28;;;;;;;3.70;3.13;;;25.10;79.90;;;;;;6272099;28;20246;-62
2021/06/11 06:57:31;;;;;;;5.50;3.70;;;25.10;79.30;;;;;;6276906;28;20242;-63
2021/06/11 07:00:34;;;;;;;4.10;3.70;;;25.00;78.40;;;;;;6276377;28;20231;-63
2021/06/11 07:03:37;;;;;;;5.87;3.03;;;24.80;79.60;;;;;;6276489;28;20672;-59
2021/06/11 07:06:41;;;;;;;3.20;3.00;;;24.80;80.10;;;;;;6275916;28;20223;-59
2021/06/11 07:09:44;;;;;;;3.80;2.97;;;24.80;79.60;;;;;;6276334;28;20241;-61
2021/06/11 07:12:47;;;;;;;3.13;2.93;;;24.80;78.50;;;;;;6276052;28;20199;-59
2021/06/11 07:15:51;;;;;;;3.77;3.37;;;24.80;78.30;;;;;;6276348;28;20200;-61
2021/06/11 07:18:54;;;;;;;3.53;3.30;;;24.80;78.90;;;;;;6276437;28;20235;-62
2021/06/11 07:21:58;;;;;;;3.43;3.13;;;24.80;78.80;;;;;;6275517;28;20645;-62
2021/06/11 07:25:03;;;;;;;3.77;3.47;;;24.70;79.00;;;;;;6275780;28;20218;-60
2021/06/11 07:28:05;;;;;;;3.67;3.37;;;24.70;78.80;;;;;;6275179;28;20227;-64
2021/06/11 07:31:08;;;;;;;7.40;3.53;;;24.70;79.20;;;;;;6276241;28;20235;-65
2021/06/11 07:34:11;;;;;;;3.13;2.93;;;24.70;78.60;;;;;;6275553;28;20238;-63
2021/06/11 07:37:15;;;;;;;4.40;4.00;;;24.80;78.70;;;;;;6276131;28;20243;-64
2021/06/11 07:40:18;;;;;;;3.37;3.13;;;24.90;78.10;;;;;;6275528;28;20235;-64
2021/06/11 07:43:21;;;;;;;4.20;3.63;;;25.00;77.20;;;;;;6275386;28;20569;-63
2021/06/11 07:46:24;;;;;;;3.63;3.03;;;25.20;77.00;;;;;;6275538;28;20253;-63
2021/06/11 07:49:27;;;;;;;4.13;3.83;;;25.30;74.70;;;;;;6275770;28;20227;-63
2021/06/11 07:52:34;;;;;;;4.00;3.70;;;25.50;73.40;;;;;;6275354;28;20235;-63
2021/06/11 07:55:39;;;;;;;5.80;3.60;;;25.80;72.20;;;;;;6275306;28;20238;-63
2021/06/11 07:58:42;;;;;;;4.87;4.40;;;25.80;71.30;;;;;;6266311;28;20247;-63
2021/06/11 08:01:44;;;;;;;7.50;3.70;;;26.00;72.20;;;;;;6275110;28;20241;-63
2021/06/11 08:04:47;;;;;;;4.77;3.50;;;26.30;69.80;;;;;;6275421;28;20227;-63
2021/06/11 08:07:52;;;;;;;4.10;3.67;;;26.70;68.80;;;;;;6274719;28;20235;-63
2021/06/11 08:10:55;;;;;;;3.97;3.67;;;27.00;68.10;;;;;;6275083;28;20231;-63
2021/06/11 08:13:58;;;;;;;3.63;3.27;;;27.10;66.00;;;;;;6274626;28;20226;-65
2021/06/11 08:17:00;;;;;;;4.00;3.73;;;27.20;64.90;;;;;;6274690;28;20707;-63
2021/06/11 08:20:05;;;;;;;3.90;3.60;;;27.20;65.10;;;;;;6274656;28;20234;-64
2021/06/11 08:23:09;;;;;;;3.80;3.50;;;27.20;64.70;;;;;;6274864;28;20227;-63
2021/06/11 08:26:12;;;;;;;4.43;4.10;;;27.30;66.90;;;;;;6273858;28;20227;-64
2021/06/11 08:29:15;;;;;;;3.57;3.27;;;27.20;68.00;;;;;;6274321;28;20250;-64
2021/06/11 08:32:17;;;;;;;4.13;3.57;;;27.30;67.80;;;;;;6274446;28;20257;-64
2021/06/11 08:35:20;;;;;;;3.67;3.47;;;27.20;67.70;;;;;;6274661;28;20249;-63
2021/06/11 08:38:24;;;;;;;5.40;3.33;;;27.50;65.40;;;;;;6275028;28;20235;-63
2021/06/11 08:41:29;;;;;;;4.17;3.60;;;27.90;65.50;;;;;;6274639;28;20237;-63
2021/06/11 08:44:33;;;;;;;3.90;3.60;;;28.00;61.90;;;;;;6274371;28;20242;-64
2021/06/11 08:47:39;;;;;;;4.10;3.70;;;28.00;61.70;;;;;;6274018;28;20292;-63
2021/06/11 08:50:42;;;;;;;3.93;3.63;;;28.00;61.30;;;;;;6274274;28;20575;-62
2021/06/11 08:53:46;;;;;;;4.53;4.23;;;27.90;59.00;;;;;;6274229;28;20230;-63
2021/06/11 08:56:50;;;;;;;4.20;3.90;;;27.70;60.70;;;;;;6274304;28;20247;-61
2021/06/11 08:59:53;;;;;;;4.30;3.63;;;27.90;60.20;;;;;;6273938;28;20233;-62
2021/06/11 09:03:13;;;;;;;4.47;4.00;;;28.20;59.50;;;;;;6274087;28;20692;-66
2021/06/11 09:06:17;;;;;;;4.00;3.70;;;28.40;57.40;;;;;;6273755;28;20235;-63
2021/06/11 09:09:21;;;;;;;4.30;4.00;;;28.70;57.70;;;;;;6274127;28;20233;-64
2021/06/11 09:12:36;;;;;;;5.00;4.57;;;28.80;56.80;;;;;;6273688;28;20238;-63
2021/06/11 09:15:39;;;;;;;4.40;4.10;;;28.90;55.90;;;;;;6274001;28;20323;-65
2021/06/11 09:18:44;;;;;;;4.40;4.10;;;29.10;55.70;;;;;;6273545;28;20226;-64
2021/06/11 09:21:48;;;;;;;4.20;3.60;;;29.40;55.70;;;;;;6274079;28;20207;-63
2021/06/11 09:24:52;;;;;;;4.07;3.77;;;29.50;54.30;;;;;;6273996;28;20210;-63
2021/06/11 09:27:56;;;;;;;3.53;3.33;;;29.70;55.10;;;;;;6273326;28;20235;-63
2021/06/11 09:30:59;;;;;;;4.10;3.40;;;29.80;54.20;;;;;;6273491;28;20218;-63
2021/06/11 09:34:19;;;;;;;4.03;3.70;;;29.80;52.40;;;;;;6274018;28;20207;-63
2021/06/11 09:37:25;;;;;;;4.30;4.00;;;29.50;50.40;;;;;;6275647;28;20668;-63
2021/06/11 09:40:31;;;;;;;3.83;3.63;;;29.20;51.70;;;;;;6278979;28;20244;-63
2021/06/11 09:43:35;;;;;;;4.27;3.87;;;29.10;53.80;;;;;;6278446;28;20246;-63
2021/06/11 09:46:46;;;;;;;4.30;4.00;;;29.10;54.10;;;;;;6278444;28;20246;-64
2021/06/11 09:49:48;;;;;;;4.70;4.30;;;29.00;54.50;;;;;;6278222;28;20238;-64
2021/06/11 09:52:56;;;;;;;4.07;3.77;;;29.00;53.80;;;;;;6278227;28;20680;-64
2021/06/11 09:56:01;;;;;;;4.23;3.90;;;29.00;52.60;;;;;;6277997;28;20227;-64
2021/06/11 09:59:04;;;;;;;5.20;4.80;;;29.20;51.60;;;;;;6277969;28;20570;-64
2021/06/11 10:02:14;;;;;;;4.27;3.97;;;29.10;51.50;;;;;;6278428;28;20580;-64
2021/06/11 10:05:17;;;;;;;4.13;3.83;;;28.90;52.10;;;;;;6278052;28;20361;-64
2021/06/11 10:08:21;;;;;;;4.33;4.03;;;29.20;52.30;;;;;;6277551;28;20231;-64
2021/06/11 10:11:26;;;;;;;4.33;4.03;;;29.50;52.20;;;;;;6278003;28;20227;-64
2021/06/11 10:14:29;;;;;;;4.47;4.07;;;29.80;50.20;;;;;;6278152;28;20237;-64
2021/06/11 10:17:32;;;;;;;4.60;4.27;;;29.90;51.50;;;;;;6277210;28;20231;-64
2021/06/11 10:20:36;;;;;;;4.17;3.80;;;29.80;48.50;;;;;;6277683;28;20223;-63
2021/06/11 10:23:39;;;;;;;3.73;3.47;;;29.80;48.80;;;;;;6277414;28;20389;-63
2021/06/11 10:26:44;;;;;;;4.47;4.07;;;30.00;47.30;;;;;;6277373;28;20226;-63
2021/06/11 10:29:46;;;;;;;4.70;4.30;;;29.70;47.80;;;;;;6276913;28;20571;-63
2021/06/11 10:32:49;;;;;;;4.47;4.10;;;29.40;47.60;;;;;;6277596;28;20230;-63
2021/06/11 10:35:52;;;;;;;3.40;3.20;;;29.10;48.00;;;;;;6276838;28;20230;-62
2021/06/11 10:38:56;;;;;;;3.40;3.13;;;29.00;48.30;;;;;;6277020;28;20707;-65
2021/06/11 10:42:07;;;;;;;4.20;3.90;;;28.90;48.40;;;;;;6276484;28;20585;-63
2021/06/11 10:45:12;;;;;;;5.30;4.10;;;28.90;49.20;;;;;;6276965;28;20230;-65
2021/06/11 10:48:16;;;;;;;4.10;3.80;;;29.00;49.10;;;;;;6275737;28;20234;-63
2021/06/11 10:51:36;;;;;;;3.53;3.23;;;28.90;49.40;;;;;;6276738;28;20227;-63
2021/06/11 10:54:39;;;;;;;5.23;3.67;;;28.90;48.90;;;;;;6276347;28;20246;-64
2021/06/11 10:57:44;;;;;;;3.97;3.77;;;28.90;48.70;;;;;;6276883;28;20223;-64
2021/06/11 11:00:47;;;;;;;4.37;4.07;;;28.90;49.60;;;;;;6276416;28;20219;-64
2021/06/11 11:03:50;;;;;;;4.40;4.10;;;28.90;49.60;;;;;;6276697;28;20294;-64
2021/06/11 11:06:53;;;;;;;4.43;3.97;;;28.70;48.70;;;;;;6276127;28;20546;-64
2021/06/11 11:09:56;;;;;;;3.33;3.13;;;28.80;49.00;;;;;;6271618;28;20553;-63
2021/06/11 11:13:02;;;;;;;3.60;3.30;;;29.20;47.50;;;;;;6276314;28;20298;-64
2021/06/11 11:16:22;;;;;;;4.43;4.13;;;29.40;46.60;;;;;;6276113;28;20204;-64
2021/06/11 11:20:02;;;;;;;4.20;3.90;;;29.30;47.80;;;;;;6276322;28;20226;-62
2021/06/11 11:23:07;;;;;;;5.90;4.37;;;29.10;48.20;;;;;;6272336;28;20231;-62
2021/06/11 11:26:10;;;;;;;4.60;4.30;;;29.10;51.60;;;;;;6276074;28;20578;-62
2021/06/11 11:29:15;;;;;;;4.70;4.30;;;29.10;51.60;;;;;;6275873;28;20235;-62
2021/06/11 11:32:18;;;;;;;4.70;4.20;;;29.00;53.00;;;;;;6275773;28;20562;-63
2021/06/11 11:35:21;;;;;;;5.63;5.23;;;28.80;54.60;;;;;;6275708;28;20230;-61
2021/06/11 11:38:24;;;;;;;5.70;5.30;;;28.70;55.80;;;;;;6275233;28;20227;-62
2021/06/11 11:41:27;;;;;;;5.23;4.83;;;28.50;56.60;;;;;;6275783;28;20688;-63
2021/06/11 11:44:33;;;;;;;4.63;4.33;;;28.50;56.70;;;;;;6275736;28;20586;-62
2021/06/11 11:47:38;;;;;;;4.53;4.23;;;28.30;58.10;;;;;;6275632;28;20235;-62
2021/06/11 11:50:41;;;;;;;5.67;5.20;;;28.10;57.60;;;;;;6275532;28;20226;-62
2021/06/11 11:53:44;;;;;;;4.40;4.10;;;27.90;57.40;;;;;;6275614;28;20230;-62
2021/06/11 11:56:46;;;;;;;4.70;4.40;;;27.80;58.90;;;;;;6275453;28;20242;-61
2021/06/11 11:59:50;;;;;;;5.40;5.00;;;27.70;58.30;;;;;;6274502;28;20246;-61
2021/06/11 12:02:56;;;;;;;4.63;4.33;;;27.70;59.00;;;;;;6275374;28;20227;-60
2021/06/11 12:06:00;;;;;;;5.47;4.93;;;27.50;59.50;;;;;;6274813;28;20246;-61
2021/06/11 12:09:04;;;;;;;5.07;4.67;;;27.40;59.80;;;;;;6274839;28;20230;-61
2021/06/11 12:12:07;;;;;;;5.17;4.50;;;27.10;59.80;;;;;;6275146;28;20235;-62
2021/06/11 12:15:13;;;;;;;4.47;4.17;;;27.00;60.70;;;;;;6275318;28;20602;-62
2021/06/11 12:18:16;;;;;;;4.63;4.33;;;26.90;61.20;;;;;;6275251;28;20231;-62
2021/06/11 12:21:19;;;;;;;5.43;4.40;;;26.80;62.20;;;;;;6274740;28;20230;-62
2021/06/11 12:24:21;;;;;;;4.30;3.90;;;26.70;62.50;;;;;;6274578;28;20223;-62
2021/06/11 12:27:24;;;;;;;5.00;4.00;;;26.70;61.70;;;;;;6274472;28;20242;-62
2021/06/11 12:30:29;;;;;;;4.50;4.20;;;26.60;61.80;;;;;;6274675;28;20234;-62
2021/06/11 12:33:32;;;;;;;4.67;4.37;;;26.40;62.70;;;;;;6274716;28;20576;-62
2021/06/11 12:36:35;;;;;;;4.83;3.97;;;26.30;61.90;;;;;;6274479;28;20231;-62
2021/06/11 12:39:37;;;;;;;4.70;3.47;;;26.40;61.60;;;;;;6274110;28;20227;-62
2021/06/11 12:42:44;;;;;;;6.63;4.57;;;26.30;61.90;;;;;;6274414;28;20692;-63
2021/06/11 12:45:48;;;;;;;4.47;4.07;;;26.20;64.60;;;;;;6298849;28;20230;-62
2021/06/11 12:48:52;;;;;;;4.37;4.07;;;25.80;66.10;;;;;;6298741;28;20229;-63
2021/06/11 12:51:55;;;;;;;4.37;4.00;;;24.90;66.80;;;;;;6274649;28;20203;-62
2021/06/11 12:54:58;;;;;;;4.33;3.93;;;25.00;66.50;;;;;;6274817;28;20294;-62
2021/06/11 12:58:00;;;;;;;4.10;3.70;;;25.20;68.40;;;;;;6274095;28;20231;-62
2021/06/11 13:01:04;;;;;;;3.93;3.63;;;25.20;67.90;;;;;;6274428;28;20208;-62
2021/06/11 13:04:07;;;;;;;3.77;3.47;;;25.50;64.20;;;;;;6273886;28;20237;-62
2021/06/11 13:07:11;;;;;;;3.23;3.03;;;25.90;63.80;;;;;;6274203;28;20222;-62
2021/06/11 13:10:14;;;;;;;3.57;3.23;;;26.00;64.30;;;;;;6274114;28;20245;-63
2021/06/11 13:13:17;;;;;;;6.97;4.60;;;26.20;61.90;;;;;;6278349;28;20238;-63
2021/06/11 13:16:21;;;;;;;3.97;3.67;;;26.40;61.90;;;;;;6278904;28;20534;-63
2021/06/11 13:19:24;;;;;;;3.10;2.90;;;26.50;60.40;;;;;;6278537;28;20696;-63
2021/06/11 13:22:26;;;;;;;3.30;3.07;;;26.50;59.50;;;;;;6278629;28;20683;-63
2021/06/11 13:25:29;;;;;;;3.40;3.20;;;26.50;60.00;;;;;;6278717;28;20561;-62
2021/06/11 13:28:32;;;;;;;4.90;3.67;;;26.60;60.40;;;;;;6278497;28;20241;-63
2021/06/11 13:31:36;;;;;;;4.47;4.17;;;26.50;60.50;;;;;;6278558;28;20552;-61
2021/06/11 13:34:39;;;;;;;4.27;3.97;;;26.80;62.30;;;;;;6278559;28;20578;-64
2021/06/11 13:37:42;;;;;;;4.63;3.83;;;27.00;62.70;;;;;;6278676;28;20317;-64
2021/06/11 13:40:45;;;;;;;4.53;4.23;;;27.00;61.70;;;;;;6278818;28;20245;-62
2021/06/11 13:43:49;;;;;;;4.70;4.37;;;27.10;60.70;;;;;;6278433;28;20231;-63
2021/06/11 13:46:53;;;;;;;4.90;4.60;;;27.00;60.90;;;;;;6278417;28;20258;-63
2021/06/11 13:49:56;;;;;;;4.77;4.47;;;26.60;60.20;;;;;;6278309;28;20235;-62
2021/06/11 13:53:00;;;;;;;4.23;3.93;;;26.40;62.50;;;;;;6278357;28;20269;-62
2021/06/11 13:56:03;;;;;;;5.07;4.67;;;26.60;64.40;;;;;;6278324;28;20237;-62
2021/06/11 13:59:06;;;;;;;4.07;3.77;;;26.70;61.30;;;;;;6277665;28;20223;-62
2021/06/11 14:02:10;;;;;;;5.10;4.70;;;26.90;59.70;;;;;;6278746;28;20231;-62
2021/06/11 14:05:15;;;;;;;4.73;4.43;;;27.10;59.20;;;;;;6277896;28;20245;-63
2021/06/11 14:08:18;;;;;;;3.00;2.80;;;27.20;59.40;;;;;;6277735;28;20278;-62
2021/06/11 14:11:21;;;;;;;3.97;3.67;;;27.30;56.00;;;;;;6277921;28;20437;-64
2021/06/11 14:14:24;;;;;;;3.87;3.67;;;27.30;56.00;;;;;;6278026;28;20568;-63
2021/06/11 14:17:28;;;;;;;4.33;3.57;;;27.20;59.40;;;;;;6277498;28;20266;-62
2021/06/11 14:20:31;;;;;;;2.50;2.30;;;27.30;60.70;;;;;;6277822;28;20226;-64
2021/06/11 14:23:34;;;;;;;2.97;2.77;;;27.40;54.70;;;;;;6276352;28;20237;-64
2021/06/11 14:26:36;;;;;;;3.07;2.80;;;27.40;55.50;;;;;;6277417;28;20693;-64
2021/06/11 14:29:39;;;;;;;2.93;2.73;;;27.50;54.50;;;;;;6277122;28;20230;-64
2021/06/11 14:32:44;;;;;;;3.00;2.80;;;27.40;54.20;;;;;;6277380;28;20332;-63
2021/06/11 14:35:48;;;;;;;3.83;3.53;;;27.20;57.10;;;;;;6277290;28;20237;-63
2021/06/11 14:38:51;;;;;;;3.73;3.43;;;26.80;60.10;;;;;;6276853;28;20238;-63
2021/06/11 14:41:54;;;;;;;3.80;3.50;;;26.30;62.80;;;;;;6277360;28;20267;-63
2021/06/11 14:44:57;;;;;;;4.23;3.83;;;26.10;64.30;;;;;;6276760;28;20227;-63
2021/06/11 14:48:01;;;;;;;4.33;3.93;;;25.80;67.10;;;;;;6276765;28;20557;-63
2021/06/11 14:51:04;;;;;;;4.57;3.83;;;25.60;69.10;;;;;;6276504;28;20238;-64
2021/06/11 14:54:07;;;;;;;3.80;3.50;;;25.20;71.20;;;;;;6277078;28;20227;-64
2021/06/11 14:57:11;;;;;;;3.47;3.23;;;25.00;72.90;;;;;;6276486;28;20250;-64
2021/06/11 15:00:15;;;;;;;4.60;4.30;;;24.80;73.80;;;;;;6276745;28;20227;-64
2021/06/11 15:03:19;;;;;;;3.40;3.20;;;24.60;73.90;;;;;;6276431;28;20234;-63
2021/06/11 15:06:22;;;;;;;4.33;4.03;;;24.40;73.70;;;;;;6276544;28;20314;-63
2021/06/11 15:09:25;;;;;;;4.57;4.27;;;24.20;76.10;;;;;;6276476;28;20297;-63
2021/06/11 15:12:28;;;;;;;6.30;4.50;;;24.00;79.50;;;;;;6276540;28;20231;-66
2021/06/11 15:15:30;;;;;;;4.47;4.07;;;23.80;81.00;;;;;;6276370;28;20242;-64
2021/06/11 15:18:35;;;;;;;6.00;4.00;;;23.60;79.80;;;;;;6275822;28;20236;-63
2021/06/11 15:21:38;;;;;;;4.37;4.07;;;23.60;80.00;;;;;;6276101;28;20238;-63
2021/06/11 15:24:42;;;;;;;4.47;4.07;;;23.60;79.30;;;;;;6275816;28;20239;-63
2021/06/11 15:27:44;;;;;;;4.50;4.10;;;23.60;79.80;;;;;;6271067;28;20597;-63
2021/06/11 15:30:49;;;;;;;4.20;3.87;;;23.60;81.00;;;;;;6275691;28;20669;-63
2021/06/11 15:33:54;;;;;;;4.47;4.07;;;23.60;79.40;;;;;;6275740;28;20665;-63
2021/06/11 15:36:58;;;;;;;4.03;3.73;;;23.70;78.50;;;;;;6275793;28;20231;-63
2021/06/11 15:40:01;;;;;;;3.93;3.60;;;23.90;77.20;;;;;;6276176;28;20211;-63
2021/06/11 15:43:09;;;;;;;5.60;3.90;;;24.10;77.30;;;;;;6275764;28;20204;-63
2021/06/11 15:46:12;;;;;;;4.60;3.80;;;24.40;77.70;;;;;;6276109;28;20228;-63
2021/06/11 15:49:16;;;;;;;3.93;3.53;;;24.60;78.30;;;;;;6275193;28;20243;-63
2021/06/11 15:52:19;;;;;;;3.80;3.37;;;24.70;75.60;;;;;;6275318;28;20685;-63
2021/06/11 15:55:21;;;;;;;4.10;3.80;;;24.80;75.90;;;;;;6275846;28;20590;-63
2021/06/11 15:58:24;;;;;;;4.30;4.00;;;24.80;76.20;;;;;;6275466;28;20242;-63
2021/06/11 16:01:27;;;;;;;7.37;5.30;;;24.60;76.70;;;;;;6275092;28;20243;-64